createdAt,value
2023-03-16T00:01:08.883Z,54.50
2023-03-16T00:03:36.520Z,55.09
2023-03-16T00:06:03.877Z,54.79
2023-03-16T00:08:30.844Z,55.17
2023-03-16T00:10:57.388Z,54.99
2023-03-16T00:13:24.804Z,55.43
2023-03-16T00:15:55.197Z,55.11
2023-03-16T00:18:27.291Z,55.88
2023-03-16T00:20:55.878Z,56.21
2023-03-16T00:23:27.510Z,56.81
2023-03-16T00:25:59.000Z,57.04
2023-03-16T00:28:27.554Z,57.53
2023-03-16T00:30:59.191Z,58.05
2023-03-16T00:33:26.807Z,58.09
2023-03-16T00:36:02.257Z,58.26
2023-03-16T00:38:34.916Z,58.69
2023-03-16T00:41:06.040Z,58.94
2023-03-16T00:43:40.973Z,59.33
2023-03-16T00:46:09.407Z,59.99
2023-03-16T00:48:38.135Z,59.70
2023-03-16T00:51:07.649Z,60.56
2023-03-16T00:53:35.284Z,61.08
2023-03-16T00:56:05.738Z,61.18
2023-03-16T00:58:37.899Z,60.99
2023-03-16T01:01:11.088Z,61.04
2023-03-16T01:03:37.729Z,61.14
2023-03-16T01:06:06.474Z,61.38
2023-03-16T01:08:33.294Z,60.78
2023-03-16T01:11:08.041Z,61.36
2023-03-16T01:13:34.822Z,61.72
2023-03-16T01:16:01.339Z,61.96
2023-03-16T01:18:28.755Z,62.01
2023-03-16T01:20:55.359Z,62.05
2023-03-16T01:23:21.920Z,61.59
2023-03-16T01:25:53.136Z,61.46
2023-03-16T01:28:21.731Z,61.41
2023-03-16T01:30:48.347Z,61.19
2023-03-16T01:33:15.190Z,61.50
2023-03-16T01:35:41.692Z,61.08
2023-03-16T01:38:08.176Z,61.19
2023-03-16T01:40:34.763Z,60.93
2023-03-16T01:43:04.506Z,61.29
2023-03-16T01:45:59.070Z,61.04
2023-03-16T01:48:27.288Z,60.53
2023-03-16T01:50:54.903Z,60.13
2023-03-16T01:53:23.024Z,60.47
2023-03-16T01:55:50.510Z,60.29
2023-03-16T01:58:17.770Z,60.03
2023-03-16T02:00:45.766Z,60.57
2023-03-16T02:03:16.732Z,60.52
2023-03-16T02:05:49.001Z,60.67
2023-03-16T02:08:17.774Z,60.73
2023-03-16T02:10:45.343Z,61.01
2023-03-16T02:13:12.672Z,61.27
2023-03-16T02:15:39.551Z,60.81
2023-03-16T02:18:07.915Z,61.36
2023-03-16T02:21:25.487Z,61.53
2023-03-16T02:23:52.569Z,60.88
2023-03-16T02:26:34.983Z,61.33
2023-03-16T02:29:27.918Z,61.64
2023-03-16T02:31:55.419Z,61.77
2023-03-16T02:34:21.951Z,61.01
2023-03-16T02:36:52.319Z,61.04
2023-03-16T02:39:18.971Z,60.89
2023-03-16T02:41:46.728Z,60.87
2023-03-16T02:44:24.360Z,61.28
2023-03-16T02:46:54.854Z,60.97
2023-03-16T02:49:34.274Z,60.93
2023-03-16T02:52:00.826Z,60.69
2023-03-16T02:54:27.369Z,60.44
2023-03-16T02:56:54.149Z,60.50
2023-03-16T02:59:20.727Z,60.58
2023-03-16T03:01:47.316Z,60.04
2023-03-16T03:04:13.852Z,60.33
2023-03-16T03:06:41.766Z,59.56
2023-03-16T03:09:09.811Z,60.11
2023-03-16T03:11:36.348Z,59.67
2023-03-16T03:14:03.973Z,59.17
2023-03-16T03:16:31.567Z,59.72
2023-03-16T03:18:59.012Z,59.69
2023-03-16T03:21:25.844Z,59.92
2023-03-16T03:23:52.546Z,60.16
2023-03-16T03:26:19.981Z,60.02
2023-03-16T03:28:46.921Z,60.12
2023-03-16T03:31:20.970Z,60.43
2023-03-16T03:33:47.756Z,60.46
2023-03-16T03:36:17.098Z,59.96
2023-03-16T03:38:44.351Z,60.35
2023-03-16T03:41:10.931Z,60.73
2023-03-16T03:43:40.046Z,61.06
2023-03-16T03:46:06.759Z,60.40
2023-03-16T03:48:33.878Z,60.63
2023-03-16T03:51:00.979Z,60.60
2023-03-16T03:53:27.522Z,61.24
2023-03-16T03:55:54.022Z,60.84
2023-03-16T03:58:20.542Z,60.51
2023-03-16T04:00:47.172Z,61.07
2023-03-16T04:03:14.270Z,60.53
2023-03-16T04:05:43.043Z,60.71
2023-03-16T04:08:09.675Z,60.18
2023-03-16T04:10:36.252Z,60.67
2023-03-16T04:13:02.796Z,60.97
2023-03-16T04:15:30.548Z,60.94
2023-03-16T04:17:57.054Z,60.70
2023-03-16T04:20:23.933Z,60.93
2023-03-16T04:22:58.298Z,60.73
2023-03-16T04:25:26.805Z,60.80
2023-03-16T04:27:54.092Z,60.74
2023-03-16T04:30:20.811Z,61.25
2023-03-16T04:32:47.465Z,61.34
2023-03-16T04:35:15.647Z,61.05
2023-03-16T04:37:42.248Z,61.48
2023-03-16T04:40:19.462Z,61.04
2023-03-16T04:42:47.443Z,61.18
2023-03-16T04:45:15.783Z,61.83
2023-03-16T04:47:42.368Z,61.78
2023-03-16T04:50:10.517Z,61.81
2023-03-16T04:52:37.021Z,61.86
2023-03-16T04:55:04.336Z,61.72
2023-03-16T04:57:30.934Z,61.50
2023-03-16T04:59:57.497Z,61.83
2023-03-16T05:02:24.521Z,61.96
2023-03-16T05:04:51.135Z,62.16
2023-03-16T05:07:17.730Z,61.93
2023-03-16T05:09:44.448Z,62.06
2023-03-16T05:12:11.158Z,61.69
2023-03-16T05:14:37.813Z,61.52
2023-03-16T05:17:04.624Z,61.71
2023-03-16T05:19:31.158Z,62.35
2023-03-16T05:21:57.836Z,62.09
2023-03-16T05:24:24.436Z,62.75
2023-03-16T05:26:51.065Z,62.84
2023-03-16T05:29:17.653Z,62.56
2023-03-16T05:31:46.861Z,62.64
2023-03-16T05:34:13.552Z,63.12
2023-03-16T05:36:40.064Z,62.80
2023-03-16T05:39:08.638Z,62.56
2023-03-16T05:41:35.786Z,62.60
2023-03-16T05:44:04.432Z,62.95
2023-03-16T05:46:31.261Z,62.29
2023-03-16T05:48:57.885Z,62.17
2023-03-16T05:51:26.469Z,62.13
2023-03-16T05:53:56.704Z,62.16
2023-03-16T05:56:27.728Z,61.52
2023-03-16T05:58:55.255Z,61.57
2023-03-16T06:01:22.820Z,62.16
2023-03-16T06:03:52.143Z,61.96
2023-03-16T06:06:22.740Z,63.08
2023-03-16T06:08:49.660Z,62.58
2023-03-16T06:11:16.501Z,62.21
2023-03-16T06:13:43.235Z,61.71
2023-03-16T06:16:11.690Z,60.61
2023-03-16T06:18:40.962Z,60.63
2023-03-16T06:21:07.574Z,60.34
2023-03-16T06:23:34.142Z,59.51
2023-03-16T06:26:01.185Z,58.86
2023-03-16T06:28:28.650Z,60.41
2023-03-16T06:30:56.624Z,60.33
2023-03-16T06:33:24.150Z,59.68
2023-03-16T06:35:51.568Z,59.13
2023-03-16T06:38:19.265Z,57.91
2023-03-16T06:40:45.854Z,57.66
2023-03-16T06:43:12.449Z,57.55
2023-03-16T06:45:39.008Z,55.49
2023-03-16T06:48:07.041Z,55.26
2023-03-16T06:50:33.535Z,53.05
2023-03-16T06:53:00.105Z,51.99
2023-03-16T06:55:26.589Z,50.97
2023-03-16T06:57:53.190Z,50.63
2023-03-16T07:00:20.117Z,50.01
2023-03-16T07:02:46.715Z,49.76
2023-03-16T07:05:13.463Z,50.37
2023-03-16T07:07:43.948Z,50.06
2023-03-16T07:10:15.743Z,49.30
2023-03-16T07:12:42.464Z,48.32
2023-03-16T07:15:10.251Z,48.16
2023-03-16T07:17:37.005Z,48.03
2023-03-16T07:20:10.560Z,48.33
2023-03-16T07:22:38.018Z,47.62
2023-03-16T07:25:06.171Z,47.20
2023-03-16T07:27:33.388Z,47.11
2023-03-16T07:30:05.182Z,47.51
2023-03-16T07:32:32.685Z,47.16
2023-03-16T07:34:59.868Z,47.00
2023-03-16T07:37:26.828Z,46.82
2023-03-16T07:39:53.431Z,47.21
2023-03-16T07:42:20.088Z,46.81
2023-03-16T07:44:46.625Z,46.70
2023-03-16T07:47:14.613Z,46.75
2023-03-16T07:49:41.813Z,45.91
2023-03-16T07:52:08.585Z,45.91
2023-03-16T07:54:35.246Z,46.27
2023-03-16T07:57:01.809Z,46.53
2023-03-16T07:59:28.367Z,46.44
2023-03-16T08:01:54.932Z,46.51
2023-03-16T08:04:22.405Z,45.41
2023-03-16T08:06:49.178Z,45.54
2023-03-16T08:09:15.762Z,44.07
2023-03-16T08:11:42.838Z,44.34
2023-03-16T08:14:09.399Z,44.47
2023-03-16T08:16:39.017Z,43.16
2023-03-16T08:19:05.588Z,42.56
2023-03-16T08:21:33.100Z,41.85
2023-03-16T08:23:59.732Z,41.75
2023-03-16T08:26:27.257Z,41.70
2023-03-16T08:28:54.438Z,41.34
2023-03-16T08:31:21.700Z,39.89
2023-03-16T08:33:48.968Z,40.16
2023-03-16T08:36:18.003Z,40.15
2023-03-16T08:38:59.906Z,40.21
2023-03-16T08:41:33.045Z,40.36
2023-03-16T08:44:00.014Z,39.82
2023-03-16T08:46:26.950Z,39.75
2023-03-16T08:48:55.865Z,40.22
2023-03-16T08:51:22.401Z,40.95
2023-03-16T08:53:48.901Z,40.80
2023-03-16T08:56:15.580Z,41.06
2023-03-16T08:58:45.504Z,41.00
2023-03-16T09:01:17.596Z,40.63
2023-03-16T09:03:46.319Z,41.13
2023-03-16T09:06:15.708Z,38.79
2023-03-16T09:08:44.383Z,37.14
2023-03-16T09:11:14.301Z,37.41
2023-03-16T09:13:41.763Z,37.63
2023-03-16T09:16:09.979Z,38.05
2023-03-16T09:18:36.840Z,39.66
2023-03-16T09:21:06.183Z,38.75
2023-03-16T09:23:34.434Z,39.01
2023-03-16T09:26:02.996Z,38.32
2023-03-16T09:28:31.376Z,38.84
2023-03-16T09:30:58.996Z,39.60
2023-03-16T09:33:26.229Z,39.44
2023-03-16T09:35:53.265Z,39.75
2023-03-16T09:38:19.949Z,39.03
2023-03-16T09:40:55.890Z,39.61
2023-03-16T09:43:40.879Z,39.11
2023-03-16T09:46:22.794Z,38.98
2023-03-16T09:48:49.330Z,38.97
2023-03-16T09:51:50.688Z,36.88
2023-03-16T09:54:45.996Z,36.74
2023-03-16T09:57:29.095Z,35.85
2023-03-16T10:00:02.949Z,34.45
2023-03-16T10:02:47.899Z,34.64
2023-03-16T10:05:17.235Z,33.71
2023-03-16T10:08:25.777Z,34.36
2023-03-16T10:11:18.026Z,34.47
2023-03-16T10:14:17.820Z,35.15
2023-03-16T10:17:03.791Z,35.58
2023-03-16T10:19:51.357Z,34.62
2023-03-16T10:22:26.559Z,34.61
2023-03-16T10:25:05.434Z,34.99
2023-03-16T10:27:36.668Z,35.30
2023-03-16T10:30:08.173Z,34.96
2023-03-16T10:32:36.632Z,35.70
2023-03-16T10:35:18.634Z,35.48
2023-03-16T10:37:46.732Z,34.41
2023-03-16T10:40:13.445Z,35.58
2023-03-16T10:42:40.057Z,34.79
2023-03-16T10:45:06.953Z,34.65
2023-03-16T10:47:33.952Z,34.36
2023-03-16T10:50:14.450Z,34.19
2023-03-16T10:52:45.341Z,35.33
2023-03-16T10:55:20.344Z,35.81
2023-03-16T10:57:55.213Z,36.00
2023-03-16T11:00:29.892Z,35.21
2023-03-16T11:02:59.722Z,34.49
2023-03-16T11:05:32.370Z,34.94
2023-03-16T11:08:04.804Z,35.14
2023-03-16T11:10:36.165Z,35.13
2023-03-16T11:13:21.041Z,34.45
2023-03-16T11:16:01.712Z,34.25
2023-03-16T11:18:32.403Z,34.15
2023-03-16T11:21:08.247Z,35.25
2023-03-16T11:23:39.402Z,33.84
2023-03-16T11:26:15.397Z,33.84
2023-03-16T11:28:49.615Z,34.85
2023-03-16T11:31:27.705Z,35.40
2023-03-16T11:33:57.448Z,35.64
2023-03-16T11:36:49.746Z,34.71
2023-03-16T11:39:42.716Z,34.97
2023-03-16T11:42:39.538Z,34.93
2023-03-16T11:45:37.222Z,34.85
2023-03-16T11:48:16.066Z,34.43
2023-03-16T11:51:12.862Z,33.42
2023-03-16T11:54:00.261Z,33.67
2023-03-16T11:56:48.150Z,33.64
2023-03-16T11:59:20.570Z,33.10
2023-03-16T12:02:16.402Z,33.00
2023-03-16T12:05:07.741Z,33.48
2023-03-16T12:07:52.131Z,35.42
2023-03-16T12:10:26.559Z,34.58
2023-03-16T12:13:20.164Z,34.06
2023-03-16T12:15:54.964Z,33.86
2023-03-16T12:18:36.489Z,34.15
2023-03-16T12:21:09.455Z,33.18
2023-03-16T12:23:41.544Z,33.68
2023-03-16T12:26:09.205Z,33.04
2023-03-16T12:28:37.390Z,32.96
2023-03-16T12:31:26.336Z,32.11
2023-03-16T12:34:07.923Z,32.34
2023-03-16T12:36:56.035Z,32.70
2023-03-16T12:39:58.471Z,32.94
2023-03-16T12:42:56.399Z,33.22
2023-03-16T12:45:36.309Z,32.66
2023-03-16T12:48:14.752Z,32.84
2023-03-16T12:50:59.681Z,32.73
2023-03-16T12:53:49.701Z,32.04
2023-03-16T12:56:19.050Z,32.58
2023-03-16T12:58:50.318Z,33.03
2023-03-16T13:01:28.530Z,32.33
2023-03-16T13:04:09.131Z,32.46
2023-03-16T13:06:37.346Z,32.59
2023-03-16T13:09:07.311Z,33.03
2023-03-16T13:11:43.805Z,32.60
2023-03-16T13:14:17.112Z,32.05
2023-03-16T13:16:45.610Z,32.77
2023-03-16T13:19:29.642Z,32.36
2023-03-16T13:22:19.854Z,32.12
2023-03-16T13:24:54.596Z,32.14
2023-03-16T13:27:36.186Z,32.82
2023-03-16T13:30:18.789Z,32.11
2023-03-16T13:32:47.161Z,32.56
2023-03-16T13:35:15.555Z,32.45
2023-03-16T13:37:43.880Z,31.72
2023-03-16T13:40:27.919Z,31.72
2023-03-16T13:42:57.251Z,31.98
2023-03-16T13:45:38.000Z,32.08
2023-03-16T13:48:05.601Z,32.29
2023-03-16T13:50:33.934Z,31.97
2023-03-16T13:53:04.495Z,32.12
2023-03-16T13:55:38.627Z,31.75
2023-03-16T13:58:05.872Z,31.22
2023-03-16T14:00:37.265Z,31.57
2023-03-16T14:03:14.682Z,31.67
2023-03-16T14:05:41.375Z,31.38
2023-03-16T14:08:19.701Z,31.53
2023-03-16T14:10:47.035Z,31.78
2023-03-16T14:13:29.238Z,31.34
2023-03-16T14:15:59.793Z,31.19
2023-03-16T14:18:30.464Z,31.92
2023-03-16T14:20:57.110Z,30.63
2023-03-16T14:23:31.652Z,31.66
2023-03-16T14:25:58.340Z,30.99
2023-03-16T14:28:32.456Z,30.67
2023-03-16T14:31:11.008Z,30.90
2023-03-16T14:33:41.999Z,30.34
2023-03-16T14:36:17.668Z,30.49
2023-03-16T14:38:48.359Z,30.24
2023-03-16T14:41:26.564Z,30.04
2023-03-16T14:43:58.461Z,30.85
2023-03-16T14:46:29.746Z,30.81
2023-03-16T14:49:28.834Z,30.29
2023-03-16T14:52:00.710Z,30.30
2023-03-16T14:54:28.450Z,30.42
2023-03-16T14:57:01.532Z,30.67
2023-03-16T14:59:28.701Z,30.80
2023-03-16T15:01:56.145Z,31.14
2023-03-16T15:04:31.391Z,30.29
2023-03-16T15:06:58.712Z,30.47
2023-03-16T15:09:29.112Z,30.41
2023-03-16T15:11:57.902Z,30.75
2023-03-16T15:14:42.686Z,30.55
2023-03-16T15:17:09.510Z,30.53
2023-03-16T15:19:36.567Z,30.67
2023-03-16T15:22:04.586Z,30.25
2023-03-16T15:24:32.910Z,30.66
2023-03-16T15:27:00.145Z,30.49
2023-03-16T15:29:27.176Z,30.97
2023-03-16T15:31:54.657Z,30.53
2023-03-16T15:34:22.506Z,30.59
2023-03-16T15:36:49.355Z,30.47
2023-03-16T15:39:24.656Z,30.27
2023-03-16T15:41:51.846Z,31.91
2023-03-16T15:44:18.807Z,31.34
2023-03-16T15:46:45.496Z,32.04
2023-03-16T15:49:12.286Z,31.42
2023-03-16T15:51:38.886Z,31.82
2023-03-16T15:54:09.568Z,31.35
2023-03-16T15:56:53.413Z,31.13
2023-03-16T15:59:24.683Z,30.65
2023-03-16T16:01:52.758Z,31.16
2023-03-16T16:04:21.769Z,30.84
2023-03-16T16:06:49.976Z,31.31
2023-03-16T16:09:17.942Z,31.26
2023-03-16T16:11:47.250Z,31.77
2023-03-16T16:14:17.368Z,32.11
2023-03-16T16:16:45.984Z,32.79
2023-03-16T16:19:16.776Z,32.50
2023-03-16T16:21:47.595Z,31.97
2023-03-16T16:24:14.114Z,32.15
2023-03-16T16:26:53.778Z,32.11
2023-03-16T16:29:22.705Z,32.28
2023-03-16T16:31:50.456Z,32.45
2023-03-16T16:34:21.142Z,32.34
2023-03-16T16:36:49.045Z,32.43
2023-03-16T16:39:15.649Z,33.14
2023-03-16T16:41:43.087Z,33.03
2023-03-16T16:44:19.875Z,33.24
2023-03-16T16:46:49.353Z,33.50
2023-03-16T16:49:16.255Z,33.19
2023-03-16T16:51:45.839Z,33.29
2023-03-16T16:54:21.960Z,33.55
2023-03-16T16:56:51.334Z,33.57
2023-03-16T16:59:37.239Z,34.09
2023-03-16T17:02:21.458Z,34.13
2023-03-16T17:04:52.144Z,34.35
2023-03-16T17:07:18.822Z,34.21
2023-03-16T17:09:51.031Z,34.70
2023-03-16T17:12:21.885Z,34.73
2023-03-16T17:14:49.236Z,35.02
2023-03-16T17:17:17.866Z,34.76
2023-03-16T17:19:46.853Z,34.87
2023-03-16T17:22:28.930Z,35.31
2023-03-16T17:24:55.637Z,35.12
2023-03-16T17:27:27.889Z,35.08
2023-03-16T17:29:55.422Z,35.26
2023-03-16T17:32:22.945Z,35.47
2023-03-16T17:34:51.003Z,35.74
2023-03-16T17:37:20.159Z,35.95
2023-03-16T17:39:47.023Z,36.03
2023-03-16T17:42:18.014Z,36.02
2023-03-16T17:44:47.448Z,35.79
2023-03-16T17:47:21.471Z,35.79
2023-03-16T17:49:48.741Z,35.76
2023-03-16T17:52:20.607Z,36.02
2023-03-16T17:54:52.229Z,35.57
2023-03-16T17:57:24.266Z,36.06
2023-03-16T17:59:51.357Z,36.45
2023-03-16T18:02:45.553Z,36.47
2023-03-16T18:05:25.369Z,36.64
2023-03-16T18:07:53.803Z,36.97
2023-03-16T18:10:24.637Z,37.03
2023-03-16T18:13:06.772Z,36.93
2023-03-16T18:15:36.548Z,37.29
2023-03-16T18:18:07.527Z,37.15
2023-03-16T18:20:36.721Z,37.27
2023-03-16T18:23:15.532Z,37.39
2023-03-16T18:25:43.067Z,36.71
2023-03-16T18:28:11.310Z,36.66
2023-03-16T18:30:39.730Z,36.96
2023-03-16T18:33:12.724Z,37.17
2023-03-16T18:35:39.380Z,37.61
2023-03-16T18:38:17.463Z,37.60
2023-03-16T18:40:43.984Z,37.91
2023-03-16T18:43:18.488Z,37.54
2023-03-16T18:45:46.048Z,37.55
2023-03-16T18:48:34.941Z,37.55
2023-03-16T18:51:02.080Z,37.22
2023-03-16T18:53:29.653Z,37.76
2023-03-16T18:55:57.557Z,37.59
2023-03-16T18:58:24.912Z,38.44
2023-03-16T19:00:56.934Z,39.07
2023-03-16T19:03:30.187Z,39.54
2023-03-16T19:05:58.686Z,39.15
2023-03-16T19:08:27.390Z,39.44
2023-03-16T19:11:01.286Z,39.92
2023-03-16T19:13:28.441Z,39.91
2023-03-16T19:15:57.710Z,40.00
2023-03-16T19:18:26.339Z,40.39
2023-03-16T19:20:55.445Z,40.30
2023-03-16T19:23:36.040Z,40.90
2023-03-16T19:26:06.221Z,40.79
2023-03-16T19:28:37.277Z,41.04
2023-03-16T19:31:16.916Z,41.27
2023-03-16T19:33:43.597Z,41.42
2023-03-16T19:36:23.405Z,41.44
2023-03-16T19:38:51.154Z,41.36
2023-03-16T19:41:28.741Z,41.31
2023-03-16T19:43:58.155Z,41.42
2023-03-16T19:46:28.556Z,41.61
2023-03-16T19:48:56.638Z,41.51
2023-03-16T19:51:25.823Z,41.60
2023-03-16T19:53:52.514Z,42.28
2023-03-16T19:56:21.829Z,41.71
2023-03-16T19:58:53.745Z,41.81
2023-03-16T20:01:23.523Z,41.75
2023-03-16T20:03:51.710Z,41.48
2023-03-16T20:06:20.680Z,42.03
2023-03-16T20:08:48.282Z,42.10
2023-03-16T20:11:35.790Z,42.55
2023-03-16T20:14:03.743Z,42.40
2023-03-16T20:16:35.507Z,42.63
2023-03-16T20:19:13.512Z,42.68
2023-03-16T20:21:40.106Z,42.48
2023-03-16T20:24:16.301Z,42.69
2023-03-16T20:26:44.189Z,42.59
2023-03-16T20:29:37.586Z,43.09
2023-03-16T20:32:12.592Z,43.40
2023-03-16T20:34:39.038Z,42.91
2023-03-16T20:37:23.753Z,43.43
2023-03-16T20:39:52.309Z,43.61
2023-03-16T20:42:24.604Z,43.81
2023-03-16T20:44:51.712Z,44.34
2023-03-16T20:47:23.227Z,43.64
2023-03-16T20:49:51.622Z,43.36
2023-03-16T20:52:24.430Z,43.48
2023-03-16T20:54:51.184Z,43.81
2023-03-16T20:57:23.643Z,43.47
2023-03-16T20:59:53.876Z,41.81
2023-03-16T21:02:29.685Z,42.46
2023-03-16T21:05:01.878Z,41.78
2023-03-16T21:07:28.588Z,41.95
2023-03-16T21:09:55.240Z,42.34
2023-03-16T21:12:31.485Z,42.39
2023-03-16T21:14:59.008Z,43.09
2023-03-16T21:17:31.319Z,43.37
2023-03-16T21:19:59.144Z,44.06
2023-03-16T21:22:31.744Z,45.26
2023-03-16T21:24:58.964Z,45.38
2023-03-16T21:27:29.087Z,46.13
2023-03-16T21:29:57.162Z,44.67
2023-03-16T21:32:28.057Z,44.16
2023-03-16T21:34:56.215Z,43.30
2023-03-16T21:37:28.949Z,42.64
2023-03-16T21:39:55.754Z,43.33
2023-03-16T21:42:22.338Z,44.12
2023-03-16T21:44:48.831Z,44.27
2023-03-16T21:47:29.315Z,44.20
2023-03-16T21:49:56.350Z,44.81
2023-03-16T21:52:25.312Z,45.83
2023-03-16T21:54:52.818Z,47.55
2023-03-16T21:57:19.886Z,47.81
2023-03-16T21:59:46.610Z,46.36
2023-03-16T22:02:34.735Z,45.73
2023-03-16T22:05:01.344Z,47.57
2023-03-16T22:07:28.013Z,46.88
2023-03-16T22:09:54.563Z,46.84
2023-03-16T22:12:21.115Z,46.63
2023-03-16T22:14:48.411Z,45.31
2023-03-16T22:17:22.308Z,45.37
2023-03-16T22:19:48.931Z,45.48
2023-03-16T22:22:16.868Z,45.15
2023-03-16T22:24:43.843Z,46.21
2023-03-16T22:27:19.260Z,47.54
2023-03-16T22:29:45.904Z,48.92
2023-03-16T22:32:18.203Z,49.79
2023-03-16T22:34:52.719Z,49.96
2023-03-16T22:37:23.049Z,49.61
2023-03-16T22:39:50.452Z,50.13
2023-03-16T22:42:24.762Z,50.32
2023-03-16T22:44:51.301Z,50.16
2023-03-16T22:47:29.370Z,50.16
2023-03-16T22:49:56.057Z,50.95
2023-03-16T22:52:28.279Z,51.18
2023-03-16T22:54:57.283Z,51.10
2023-03-16T22:57:23.878Z,50.13
2023-03-16T22:59:52.212Z,51.17
2023-03-16T23:02:24.387Z,49.87
2023-03-16T23:04:51.025Z,48.53
2023-03-16T23:07:18.288Z,48.29
2023-03-16T23:09:44.832Z,49.25
2023-03-16T23:12:17.366Z,49.55
2023-03-16T23:14:44.323Z,50.49
2023-03-16T23:17:19.635Z,50.64
2023-03-16T23:19:46.716Z,51.48
2023-03-16T23:22:13.442Z,52.64
2023-03-16T23:24:41.032Z,52.88
2023-03-16T23:27:17.504Z,53.51
2023-03-16T23:29:47.262Z,53.78
2023-03-16T23:32:17.016Z,53.12
2023-03-16T23:34:43.646Z,53.48
2023-03-16T23:37:10.226Z,53.92
2023-03-16T23:39:38.161Z,53.63
2023-03-16T23:42:06.550Z,54.21
2023-03-16T23:44:34.532Z,54.56
2023-03-16T23:47:02.931Z,54.42
2023-03-16T23:49:32.882Z,55.74
2023-03-16T23:52:00.748Z,54.75
2023-03-16T23:54:30.582Z,54.11
2023-03-16T23:56:57.387Z,54.80
2023-03-16T23:59:27.698Z,55.54
